createdAt,value
2023-09-23T00:01:46.574Z,25.98
2023-09-23T00:04:15.193Z,20.40
2023-09-23T00:06:43.980Z,18.83
2023-09-23T00:09:16.356Z,15.90
2023-09-23T00:11:45.048Z,21.05
2023-09-23T00:14:13.837Z,16.17
2023-09-23T00:16:46.478Z,21.00
2023-09-23T00:19:16.637Z,22.13
2023-09-23T00:21:46.780Z,18.88
2023-09-23T00:24:15.333Z,22.00
2023-09-23T00:26:45.152Z,18.17
2023-09-23T00:29:14.165Z,21.38
2023-09-23T00:31:45.010Z,19.38
2023-09-23T00:34:13.898Z,21.85
2023-09-23T00:36:43.262Z,21.02
2023-09-23T00:39:11.866Z,17.05
2023-09-23T00:41:42.867Z,22.42
2023-09-23T00:44:11.805Z,25.52
2023-09-23T00:46:41.392Z,21.40
2023-09-23T00:49:12.621Z,16.98
2023-09-23T00:51:43.128Z,16.80
2023-09-23T00:54:15.540Z,23.10
2023-09-23T00:56:44.248Z,19.20
2023-09-23T00:59:18.529Z,15.65
2023-09-23T01:01:54.693Z,16.77
2023-09-23T01:04:25.793Z,17.20
2023-09-23T01:06:55.325Z,23.30
2023-09-23T01:09:24.978Z,19.15
2023-09-23T01:11:56.146Z,20.27
2023-09-23T01:14:25.051Z,18.30
2023-09-23T01:16:54.524Z,22.40
2023-09-23T01:19:27.854Z,20.00
2023-09-23T01:21:57.132Z,26.33
2023-09-23T01:24:31.715Z,24.60
2023-09-23T01:27:00.484Z,20.80
2023-09-23T01:29:29.277Z,28.38
2023-09-23T01:32:13.209Z,24.33
2023-09-23T01:34:41.707Z,20.40
2023-09-23T01:37:10.978Z,27.65
2023-09-23T01:39:42.508Z,20.10
2023-09-23T01:42:12.983Z,23.95
2023-09-23T01:44:42.544Z,30.73
2023-09-23T01:47:11.462Z,22.92
2023-09-23T01:49:40.775Z,20.48
2023-09-23T01:52:09.201Z,25.30
2023-09-23T01:54:38.384Z,25.63
2023-09-23T01:57:08.377Z,19.40
2023-09-23T01:59:36.963Z,27.90
2023-09-23T02:02:06.364Z,21.88
2023-09-23T02:04:37.286Z,15.27
2023-09-23T02:07:06.038Z,19.85
2023-09-23T02:09:35.885Z,18.70
2023-09-23T02:12:04.966Z,21.52
2023-09-23T02:14:34.938Z,17.55
2023-09-23T02:17:03.900Z,16.25
2023-09-23T02:19:32.497Z,20.92
2023-09-23T02:22:06.959Z,14.40
2023-09-23T02:24:38.120Z,22.13
2023-09-23T02:27:07.059Z,22.58
2023-09-23T02:29:37.973Z,23.15
2023-09-23T02:32:07.932Z,19.08
2023-09-23T02:34:38.286Z,20.25
2023-09-23T02:37:07.201Z,18.20
2023-09-23T02:39:35.820Z,19.25
2023-09-23T02:42:07.803Z,20.48
2023-09-23T02:44:37.879Z,14.68
2023-09-23T02:47:06.916Z,22.15
2023-09-23T02:49:38.388Z,18.63
2023-09-23T02:52:08.018Z,18.73
2023-09-23T02:54:36.399Z,16.35
2023-09-23T02:57:09.711Z,24.40
2023-09-23T02:59:43.339Z,25.10
2023-09-23T03:02:21.750Z,14.10
2023-09-23T03:04:59.360Z,19.38
2023-09-23T03:07:36.141Z,13.90
2023-09-23T03:10:10.657Z,20.38
2023-09-23T03:12:44.286Z,25.35
2023-09-23T03:15:18.012Z,16.02
2023-09-23T03:17:52.271Z,23.42
2023-09-23T03:20:24.730Z,20.23
2023-09-23T03:22:55.401Z,24.98
2023-09-23T03:25:25.360Z,18.98
2023-09-23T03:27:54.974Z,22.92
2023-09-23T03:30:25.511Z,19.80
2023-09-23T03:32:55.266Z,20.45
2023-09-23T03:35:26.367Z,20.02
2023-09-23T03:37:55.364Z,19.23
2023-09-23T03:40:26.707Z,17.88
2023-09-23T03:42:55.470Z,15.60
2023-09-23T03:45:26.656Z,20.88
2023-09-23T03:47:55.654Z,14.10
2023-09-23T03:50:24.655Z,15.75
2023-09-23T03:52:53.323Z,21.38
2023-09-23T03:55:21.919Z,15.98
2023-09-23T03:57:50.353Z,14.77
2023-09-23T04:00:19.166Z,20.65
2023-09-23T04:02:49.748Z,16.05
2023-09-23T04:05:21.170Z,15.45
2023-09-23T04:07:51.313Z,16.70
2023-09-23T04:10:20.843Z,17.25
2023-09-23T04:12:49.397Z,18.35
2023-09-23T04:15:19.717Z,15.23
2023-09-23T04:17:50.674Z,22.20
2023-09-23T04:20:19.659Z,17.42
2023-09-23T04:22:50.115Z,21.00
2023-09-23T04:25:22.147Z,23.02
2023-09-23T04:27:50.980Z,20.33
2023-09-23T04:30:19.898Z,16.52
2023-09-23T04:32:50.421Z,22.30
2023-09-23T04:35:18.984Z,17.10
2023-09-23T04:37:47.527Z,14.48
2023-09-23T04:40:16.513Z,14.88
2023-09-23T04:42:49.759Z,20.52
2023-09-23T04:45:19.423Z,17.23
2023-09-23T04:47:52.000Z,15.85
2023-09-23T04:50:24.811Z,20.55
2023-09-23T04:52:55.297Z,17.70
2023-09-23T04:55:23.896Z,10.55
2023-09-23T04:58:01.415Z,22.10
2023-09-23T05:00:33.992Z,13.98
2023-09-23T05:03:03.964Z,19.58
2023-09-23T05:05:32.947Z,19.42
2023-09-23T05:08:01.634Z,17.48
2023-09-23T05:10:30.936Z,14.32
2023-09-23T05:13:00.672Z,14.40
2023-09-23T05:15:30.613Z,19.75
2023-09-23T05:17:59.373Z,17.92
2023-09-23T05:20:30.265Z,20.02
2023-09-23T05:23:01.688Z,19.08
2023-09-23T05:25:30.435Z,19.63
2023-09-23T05:27:59.196Z,15.93
2023-09-23T05:30:28.913Z,18.77
2023-09-23T05:32:57.425Z,17.23
2023-09-23T05:35:26.447Z,23.30
2023-09-23T05:37:56.512Z,17.42
2023-09-23T05:40:28.794Z,24.15
2023-09-23T05:42:57.986Z,14.35
2023-09-23T05:45:27.132Z,14.02
2023-09-23T05:47:56.248Z,16.98
2023-09-23T05:50:24.979Z,18.23
2023-09-23T05:52:54.863Z,18.92
2023-09-23T05:55:25.793Z,19.42
2023-09-23T05:57:56.085Z,15.77
2023-09-23T06:00:24.596Z,15.73
2023-09-23T06:02:53.045Z,13.05
2023-09-23T06:05:23.271Z,22.20
2023-09-23T06:07:52.350Z,16.88
2023-09-23T06:10:20.784Z,15.55
2023-09-23T06:12:50.700Z,22.15
2023-09-23T06:15:19.672Z,14.13
2023-09-23T06:17:48.365Z,16.63
2023-09-23T06:20:17.170Z,16.63
2023-09-23T06:22:45.902Z,16.20
2023-09-23T06:25:14.404Z,17.35
2023-09-23T06:27:44.224Z,22.48
2023-09-23T06:30:16.927Z,18.35
2023-09-23T06:32:46.173Z,14.65
2023-09-23T06:35:15.773Z,15.18
2023-09-23T06:37:45.660Z,16.35
2023-09-23T06:40:14.293Z,23.25
2023-09-23T06:42:43.038Z,25.92
2023-09-23T06:45:12.283Z,20.23
2023-09-23T06:47:42.298Z,18.58
2023-09-23T06:50:11.834Z,13.35
2023-09-23T06:52:42.390Z,19.05
2023-09-23T06:55:11.713Z,12.45
2023-09-23T06:57:40.354Z,17.67
2023-09-23T07:00:09.571Z,13.85
2023-09-23T07:02:38.143Z,14.27
2023-09-23T07:05:09.832Z,16.92
2023-09-23T07:07:39.503Z,14.00
2023-09-23T07:10:10.404Z,14.55
2023-09-23T07:12:38.805Z,19.52
2023-09-23T07:15:08.235Z,18.02
2023-09-23T07:17:37.519Z,14.57
2023-09-23T07:20:08.989Z,17.75
2023-09-23T07:22:37.680Z,18.23
2023-09-23T07:25:07.090Z,18.10
2023-09-23T07:27:35.581Z,22.27
2023-09-23T07:30:05.122Z,19.98
2023-09-23T07:32:33.908Z,13.57
2023-09-23T07:35:05.180Z,17.27
2023-09-23T07:37:35.471Z,14.98
2023-09-23T07:40:05.118Z,18.48
2023-09-23T07:42:33.552Z,20.35
2023-09-23T07:45:02.119Z,15.82
2023-09-23T07:47:30.559Z,17.52
2023-09-23T07:50:00.507Z,18.80
2023-09-23T07:52:29.006Z,19.65
2023-09-23T07:54:59.254Z,18.70
2023-09-23T07:57:27.674Z,17.30
2023-09-23T08:00:05.147Z,16.58
2023-09-23T08:02:37.103Z,16.83
2023-09-23T08:05:08.683Z,17.42
2023-09-23T08:07:38.293Z,20.98
2023-09-23T08:10:16.638Z,17.73
2023-09-23T08:12:46.756Z,12.23
2023-09-23T08:15:15.971Z,13.52
2023-09-23T08:17:44.668Z,15.68
2023-09-23T08:20:19.640Z,18.38
2023-09-23T08:22:48.437Z,15.80
2023-09-23T08:25:19.602Z,14.77
2023-09-23T08:27:48.703Z,15.25
2023-09-23T08:30:18.850Z,17.02
2023-09-23T08:32:47.717Z,18.98
2023-09-23T08:35:16.437Z,16.48
2023-09-23T08:37:47.442Z,13.77
2023-09-23T08:40:21.003Z,14.23
2023-09-23T08:42:55.121Z,11.70
2023-09-23T08:45:28.744Z,11.13
2023-09-23T08:47:59.818Z,15.63
2023-09-23T08:50:29.547Z,12.02
2023-09-23T08:53:00.758Z,11.70
2023-09-23T08:55:31.771Z,12.73
2023-09-23T08:58:03.754Z,11.30
2023-09-23T09:00:33.046Z,11.55
2023-09-23T09:03:01.502Z,12.30
2023-09-23T09:05:41.834Z,11.95
2023-09-23T09:08:10.729Z,14.00
2023-09-23T09:10:41.751Z,11.98
2023-09-23T09:13:10.410Z,13.90
2023-09-23T09:15:40.145Z,9.75
2023-09-23T09:18:09.119Z,9.88
2023-09-23T09:20:38.758Z,9.73
2023-09-23T09:23:08.475Z,10.73
2023-09-23T09:25:37.407Z,15.40
2023-09-23T09:28:07.937Z,9.00
2023-09-23T09:30:36.978Z,9.90
2023-09-23T09:33:11.448Z,9.98
2023-09-23T09:35:42.744Z,11.50
2023-09-23T09:38:18.448Z,10.77
2023-09-23T09:40:48.792Z,8.70
2023-09-23T09:43:22.043Z,11.60
2023-09-23T09:45:52.257Z,7.60
2023-09-23T09:48:21.707Z,14.70
2023-09-23T09:50:51.994Z,7.90
2023-09-23T09:53:21.959Z,9.85
2023-09-23T09:55:51.087Z,7.03
2023-09-23T09:58:24.951Z,8.55
2023-09-23T10:00:53.753Z,12.98
2023-09-23T10:03:29.532Z,14.93
2023-09-23T10:06:03.409Z,10.55
2023-09-23T10:08:39.659Z,7.45
2023-09-23T10:11:11.173Z,6.53
2023-09-23T10:13:41.888Z,7.75
2023-09-23T10:16:14.725Z,7.07
2023-09-23T10:18:43.581Z,6.05
2023-09-23T10:21:25.209Z,6.60
2023-09-23T10:23:54.839Z,10.02
2023-09-23T10:26:25.015Z,7.60
2023-09-23T10:29:07.068Z,6.10
2023-09-23T10:31:36.860Z,8.07
2023-09-23T10:34:07.993Z,5.20
2023-09-23T10:36:38.339Z,5.57
2023-09-23T10:39:08.166Z,5.72
2023-09-23T10:41:37.580Z,9.70
2023-09-23T10:44:09.501Z,8.40
2023-09-23T10:46:39.397Z,6.47
2023-09-23T10:49:08.722Z,6.82
2023-09-23T10:51:37.451Z,5.95
2023-09-23T10:54:06.275Z,4.95
2023-09-23T10:56:35.328Z,5.78
2023-09-23T10:59:05.769Z,6.00
2023-09-23T11:01:36.452Z,5.30
2023-09-23T11:04:08.114Z,8.00
2023-09-23T11:06:36.868Z,7.82
2023-09-23T11:09:05.716Z,6.72
2023-09-23T11:11:38.198Z,6.55
2023-09-23T11:14:14.718Z,5.15
2023-09-23T11:16:49.063Z,6.90
2023-09-23T11:19:19.184Z,6.50
2023-09-23T11:21:49.192Z,7.00
2023-09-23T11:24:17.947Z,6.43
2023-09-23T11:26:47.835Z,8.10
2023-09-23T11:29:16.655Z,10.13
2023-09-23T11:31:47.143Z,6.85
2023-09-23T11:34:16.065Z,6.47
2023-09-23T11:36:45.014Z,8.38
2023-09-23T11:39:14.157Z,6.20
2023-09-23T11:41:42.711Z,6.82
2023-09-23T11:44:11.387Z,6.22
2023-09-23T11:46:40.083Z,6.03
2023-09-23T11:49:10.209Z,7.75
2023-09-23T11:51:39.389Z,8.18
2023-09-23T11:54:09.344Z,9.13
2023-09-23T11:56:38.131Z,9.13
2023-09-23T11:59:08.668Z,7.75
2023-09-23T12:01:38.161Z,6.55
2023-09-23T12:04:07.210Z,6.20
2023-09-23T12:06:38.177Z,7.95
2023-09-23T12:09:10.626Z,7.65
2023-09-23T12:11:39.961Z,7.88
2023-09-23T12:14:11.245Z,9.68
2023-09-23T12:16:39.957Z,8.45
2023-09-23T12:19:08.310Z,9.38
2023-09-23T12:21:38.544Z,8.32
2023-09-23T12:24:08.127Z,9.70
2023-09-23T12:26:37.044Z,7.07
2023-09-23T12:29:05.602Z,8.25
2023-09-23T12:31:34.345Z,12.65
2023-09-23T12:34:02.866Z,8.18
2023-09-23T12:36:31.465Z,5.95
2023-09-23T12:39:02.483Z,10.82
2023-09-23T12:41:31.204Z,11.95
2023-09-23T12:43:59.743Z,7.30
2023-09-23T12:46:28.542Z,7.72
2023-09-23T12:48:57.292Z,8.93
2023-09-23T12:51:26.006Z,11.48
2023-09-23T12:53:54.506Z,9.00
2023-09-23T12:56:24.779Z,10.82
2023-09-23T12:58:53.259Z,9.43
2023-09-23T13:01:22.562Z,7.70
2023-09-23T13:03:52.162Z,13.05
2023-09-23T13:06:21.155Z,13.60
2023-09-23T13:08:49.669Z,11.15
2023-09-23T13:11:18.247Z,12.25
2023-09-23T13:13:51.459Z,9.38
2023-09-23T13:16:20.465Z,11.32
2023-09-23T13:18:49.081Z,12.15
2023-09-23T13:21:18.043Z,9.68
2023-09-23T13:23:46.610Z,12.68
2023-09-23T13:26:15.405Z,10.88
2023-09-23T13:28:43.950Z,10.88
2023-09-23T13:31:13.873Z,10.23
2023-09-23T13:33:42.556Z,10.27
2023-09-23T13:36:11.638Z,8.70
2023-09-23T13:38:39.993Z,12.57
2023-09-23T13:41:08.907Z,10.50
2023-09-23T13:43:37.498Z,11.05
2023-09-23T13:46:05.956Z,13.40
2023-09-23T13:48:36.246Z,14.85
2023-09-23T13:51:08.119Z,9.70
2023-09-23T13:53:36.843Z,11.68
2023-09-23T13:56:06.102Z,10.68
2023-09-23T13:58:34.736Z,11.68
2023-09-23T14:01:03.167Z,10.52
2023-09-23T14:03:31.830Z,14.88
2023-09-23T14:06:01.984Z,12.30
2023-09-23T14:08:30.516Z,14.57
2023-09-23T14:10:59.020Z,11.57
2023-09-23T14:13:27.378Z,15.23
2023-09-23T14:15:56.252Z,10.20
2023-09-23T14:18:24.861Z,15.02
2023-09-23T14:20:53.696Z,14.05
2023-09-23T14:23:23.782Z,9.75
2023-09-23T14:25:52.421Z,13.30
2023-09-23T14:28:21.119Z,10.32
2023-09-23T14:30:49.691Z,15.75
2023-09-23T14:33:18.380Z,11.40
2023-09-23T14:35:47.014Z,13.00
2023-09-23T14:38:15.674Z,13.48
2023-09-23T14:40:45.512Z,8.55
2023-09-23T14:43:14.511Z,10.48
2023-09-23T14:45:42.901Z,12.07
2023-09-23T14:48:11.801Z,15.73
2023-09-23T14:50:40.740Z,11.88
2023-09-23T14:53:09.713Z,12.75
2023-09-23T14:55:38.459Z,13.07
2023-09-23T14:58:08.617Z,10.98
2023-09-23T15:00:37.319Z,16.35
2023-09-23T15:03:07.112Z,13.50
2023-09-23T15:05:36.523Z,13.02
2023-09-23T15:08:05.445Z,11.55
2023-09-23T15:10:34.049Z,11.85
2023-09-23T15:13:02.931Z,17.67
2023-09-23T15:15:33.109Z,8.50
2023-09-23T15:18:01.675Z,11.10
2023-09-23T15:20:30.447Z,11.32
2023-09-23T15:22:59.140Z,11.82
2023-09-23T15:25:27.662Z,12.38
2023-09-23T15:27:56.093Z,10.93
2023-09-23T15:30:24.576Z,13.15
2023-09-23T15:32:54.572Z,10.93
2023-09-23T15:35:25.197Z,12.18
2023-09-23T15:37:53.516Z,9.93
2023-09-23T15:40:21.784Z,14.68
2023-09-23T15:42:50.454Z,10.57
2023-09-23T15:45:19.297Z,10.95
2023-09-23T15:47:47.634Z,9.15
2023-09-23T15:50:17.630Z,9.27
2023-09-23T15:52:46.543Z,13.95
2023-09-23T15:55:16.938Z,8.52
2023-09-23T15:57:45.557Z,9.88
2023-09-23T16:00:16.165Z,9.35
2023-09-23T16:02:44.683Z,11.02
2023-09-23T16:05:14.969Z,10.90
2023-09-23T16:07:45.667Z,11.13
2023-09-23T16:10:14.203Z,10.40
2023-09-23T16:12:42.549Z,8.80
2023-09-23T16:15:11.303Z,12.27
2023-09-23T16:17:39.939Z,12.95
2023-09-23T16:20:10.232Z,11.88
2023-09-23T16:22:39.214Z,11.02
2023-09-23T16:25:10.403Z,11.85
2023-09-23T16:27:42.132Z,11.18
2023-09-23T16:30:11.929Z,11.90
2023-09-23T16:32:41.010Z,15.13
2023-09-23T16:35:12.280Z,16.10
2023-09-23T16:37:42.102Z,18.60
2023-09-23T16:40:15.148Z,14.95
2023-09-23T16:42:43.897Z,11.77
2023-09-23T16:45:12.641Z,14.32
2023-09-23T16:47:41.397Z,15.13
2023-09-23T16:50:10.871Z,18.10
2023-09-23T16:52:39.515Z,17.27
2023-09-23T16:55:09.899Z,14.32
2023-09-23T16:57:39.855Z,15.20
2023-09-23T17:00:10.373Z,13.27
2023-09-23T17:02:38.847Z,16.15
2023-09-23T17:05:08.323Z,13.52
2023-09-23T17:07:36.773Z,15.82
2023-09-23T17:10:06.188Z,14.50
2023-09-23T17:12:35.407Z,16.67
2023-09-23T17:15:06.560Z,14.40
2023-09-23T17:17:35.019Z,18.48
2023-09-23T17:20:03.978Z,11.55
2023-09-23T17:22:32.723Z,17.80
2023-09-23T17:25:01.399Z,18.52
2023-09-23T17:27:29.741Z,19.38
2023-09-23T17:29:58.629Z,17.25
2023-09-23T17:32:29.769Z,15.50
2023-09-23T17:34:58.920Z,10.50
2023-09-23T17:37:27.452Z,16.48
2023-09-23T17:39:56.690Z,13.27
2023-09-23T17:42:27.032Z,11.98
2023-09-23T17:44:55.594Z,11.68
2023-09-23T17:47:24.233Z,10.18
2023-09-23T17:49:54.582Z,10.75
2023-09-23T17:52:23.129Z,5.70
2023-09-23T17:54:51.831Z,10.32
2023-09-23T17:57:20.628Z,12.63
2023-09-23T17:59:49.508Z,7.15
2023-09-23T18:02:18.281Z,7.40
2023-09-23T18:04:46.823Z,5.60
2023-09-23T18:07:17.134Z,9.63
2023-09-23T18:09:45.473Z,8.80
2023-09-23T18:12:14.229Z,4.50
2023-09-23T18:14:42.822Z,10.07
2023-09-23T18:17:11.919Z,8.77
2023-09-23T18:19:40.529Z,8.68
2023-09-23T18:22:09.290Z,9.07
2023-09-23T18:24:39.397Z,12.93
2023-09-23T18:27:07.879Z,13.55
2023-09-23T18:29:36.521Z,4.22
2023-09-23T18:32:06.761Z,9.75
2023-09-23T18:34:35.444Z,6.95
2023-09-23T18:37:04.351Z,6.63
2023-09-23T18:39:32.676Z,5.10
2023-09-23T18:42:03.060Z,6.70
2023-09-23T18:44:31.601Z,6.65
2023-09-23T18:47:00.001Z,8.20
2023-09-23T18:49:28.734Z,7.05
2023-09-23T18:51:59.535Z,6.53
2023-09-23T18:54:28.131Z,7.78
2023-09-23T18:56:56.816Z,8.82
2023-09-23T18:59:26.757Z,7.10
2023-09-23T19:01:56.573Z,5.22
2023-09-23T19:04:25.616Z,5.18
2023-09-23T19:06:54.902Z,3.83
2023-09-23T19:09:23.476Z,3.30
2023-09-23T19:11:52.158Z,4.18
2023-09-23T19:14:21.917Z,3.97
2023-09-23T19:16:55.028Z,4.25
2023-09-23T19:19:24.682Z,4.03
2023-09-23T19:21:53.314Z,5.93
2023-09-23T19:24:22.957Z,4.10
2023-09-23T19:26:57.104Z,8.65
2023-09-23T19:29:26.231Z,5.38
2023-09-23T19:32:00.244Z,4.50
2023-09-23T19:34:28.969Z,6.20
2023-09-23T19:36:58.836Z,6.00
2023-09-23T19:39:29.863Z,8.93
2023-09-23T19:41:59.022Z,6.78
2023-09-23T19:44:28.189Z,4.38
2023-09-23T19:46:58.743Z,2.22
2023-09-23T19:49:27.349Z,3.60
2023-09-23T19:51:56.687Z,1.27
2023-09-23T19:54:26.750Z,2.58
2023-09-23T19:56:55.166Z,0.60
2023-09-23T19:59:23.715Z,0.80
2023-09-23T20:01:52.302Z,0.43
2023-09-23T20:04:22.646Z,0.45
2023-09-23T20:06:50.995Z,1.55
2023-09-23T20:09:19.460Z,0.65
2023-09-23T20:11:48.581Z,1.13
2023-09-23T20:14:19.031Z,0.60
2023-09-23T20:16:48.763Z,1.65
2023-09-23T20:19:17.309Z,0.68
2023-09-23T20:21:47.988Z,0.50
2023-09-23T20:24:16.741Z,0.47
2023-09-23T20:26:45.302Z,0.55
2023-09-23T20:29:14.980Z,0.20
2023-09-23T20:31:44.660Z,0.75
2023-09-23T20:34:13.339Z,0.17
2023-09-23T20:36:42.505Z,0.20
2023-09-23T20:39:12.670Z,0.50
2023-09-23T20:41:41.847Z,0.43
2023-09-23T20:44:15.388Z,1.17
2023-09-23T20:46:45.654Z,0.40
2023-09-23T20:49:15.490Z,0.40
2023-09-23T20:51:44.265Z,1.27
2023-09-23T20:54:14.886Z,0.90
2023-09-23T20:56:44.441Z,0.80
2023-09-23T20:59:15.616Z,0.73
2023-09-23T21:01:53.308Z,0.60
2023-09-23T21:04:22.018Z,0.38
2023-09-23T21:06:52.619Z,0.60
2023-09-23T21:09:22.794Z,0.40
2023-09-23T21:11:51.472Z,0.40
2023-09-23T21:14:31.237Z,0.52
2023-09-23T21:16:59.696Z,0.90
2023-09-23T21:19:36.270Z,0.30
2023-09-23T21:22:11.230Z,0.82
2023-09-23T21:24:42.650Z,0.90
2023-09-23T21:27:14.215Z,0.20
2023-09-23T21:29:53.249Z,0.50
2023-09-23T21:32:33.941Z,1.75
2023-09-23T21:35:05.148Z,0.20
2023-09-23T21:37:50.468Z,0.80
2023-09-23T21:40:27.795Z,0.40
2023-09-23T21:43:00.988Z,2.45
2023-09-23T21:45:32.579Z,0.22
2023-09-23T21:48:02.777Z,0.28
2023-09-23T21:50:32.615Z,1.55
2023-09-23T21:53:11.979Z,0.10
2023-09-23T21:55:42.026Z,0.13
2023-09-23T21:58:25.729Z,0.30
2023-09-23T22:01:12.784Z,0.22
2023-09-23T22:03:47.711Z,0.43
2023-09-23T22:06:18.658Z,0.80
2023-09-23T22:08:55.657Z,0.30
2023-09-23T22:11:27.789Z,0.50
2023-09-23T22:14:04.201Z,0.55
2023-09-23T22:16:34.834Z,0.30
2023-09-23T22:19:06.056Z,0.93
2023-09-23T22:21:41.784Z,1.83
2023-09-23T22:24:12.591Z,1.23
2023-09-23T22:26:44.702Z,1.10
2023-09-23T22:29:22.490Z,2.08
2023-09-23T22:31:53.916Z,1.13
2023-09-23T22:34:22.623Z,0.30
2023-09-23T22:36:58.122Z,1.13
2023-09-23T22:39:27.314Z,0.85
2023-09-23T22:41:57.674Z,1.95
2023-09-23T22:44:27.352Z,2.25
2023-09-23T22:46:56.984Z,1.75
2023-09-23T22:49:29.487Z,1.25
2023-09-23T22:51:57.933Z,2.05
2023-09-23T22:54:27.553Z,1.45
2023-09-23T22:57:14.497Z,1.73
2023-09-23T22:59:43.027Z,1.60
2023-09-23T23:02:14.046Z,1.73
2023-09-23T23:04:44.624Z,1.70
2023-09-23T23:07:13.483Z,2.03
2023-09-23T23:09:44.269Z,1.52
2023-09-23T23:12:20.673Z,2.30
2023-09-23T23:14:53.639Z,3.00
2023-09-23T23:17:31.209Z,3.38
2023-09-23T23:20:11.268Z,5.53
2023-09-23T23:22:46.683Z,6.10
2023-09-23T23:25:19.906Z,6.30
2023-09-23T23:27:55.681Z,6.53
2023-09-23T23:30:25.612Z,6.25
2023-09-23T23:32:55.291Z,6.88
2023-09-23T23:35:28.370Z,9.93
2023-09-23T23:38:04.209Z,12.60
2023-09-23T23:40:43.791Z,10.23
2023-09-23T23:43:20.995Z,9.75
2023-09-23T23:46:07.923Z,9.30
2023-09-23T23:48:44.645Z,10.52
2023-09-23T23:51:19.229Z,11.02
2023-09-23T23:53:50.184Z,10.45
2023-09-23T23:56:19.925Z,7.75
2023-09-23T23:59:01.268Z,11.07
